sensor_id;sensor_type;location;lat;lon;timestamp;P1;durP1;ratioP1;P2;durP2;ratioP2
29026;SDS011;16120;48.608;9.092;2024-03-08T00:00:33;117.27;;;10.07;;
29026;SDS011;16120;48.608;9.092;2024-03-08T00:04:28;118.10;;;9.87;;
29026;SDS011;16120;48.608;9.092;2024-03-08T00:08:24;117.97;;;10.07;;
29026;SDS011;16120;48.608;9.092;2024-03-08T00:12:20;118.57;;;10.20;;
29026;SDS011;16120;48.608;9.092;2024-03-08T00:16:15;118.03;;;10.00;;
29026;SDS011;16120;48.608;9.092;2024-03-08T00:20:10;118.10;;;10.00;;
29026;SDS011;16120;48.608;9.092;2024-03-08T00:24:07;117.97;;;10.10;;
29026;SDS011;16120;48.608;9.092;2024-03-08T00:28:02;118.77;;;10.10;;
29026;SDS011;16120;48.608;9.092;2024-03-08T00:31:57;118.37;;;10.27;;
29026;SDS011;16120;48.608;9.092;2024-03-08T00:35:52;118.27;;;10.13;;
29026;SDS011;16120;48.608;9.092;2024-03-08T00:39:49;118.20;;;10.33;;
29026;SDS011;16120;48.608;9.092;2024-03-08T00:43:44;118.10;;;10.20;;
29026;SDS011;16120;48.608;9.092;2024-03-08T00:47:39;118.47;;;10.03;;
29026;SDS011;16120;48.608;9.092;2024-03-08T00:51:34;119.03;;;9.90;;
29026;SDS011;16120;48.608;9.092;2024-03-08T00:55:31;118.97;;;10.13;;
29026;SDS011;16120;48.608;9.092;2024-03-08T00:59:26;119.90;;;10.77;;
29026;SDS011;16120;48.608;9.092;2024-03-08T01:03:22;119.37;;;10.23;;
29026;SDS011;16120;48.608;9.092;2024-03-08T01:07:17;120.17;;;11.17;;
29026;SDS011;16120;48.608;9.092;2024-03-08T01:11:14;119.50;;;10.10;;
29026;SDS011;16120;48.608;9.092;2024-03-08T01:15:09;120.50;;;10.67;;
29026;SDS011;16120;48.608;9.092;2024-03-08T01:19:04;120.30;;;10.60;;
29026;SDS011;16120;48.608;9.092;2024-03-08T01:23:00;120.33;;;10.63;;
29026;SDS011;16120;48.608;9.092;2024-03-08T01:26:56;120.90;;;11.30;;
29026;SDS011;16120;48.608;9.092;2024-03-08T01:30:51;120.33;;;10.50;;
29026;SDS011;16120;48.608;9.092;2024-03-08T01:34:47;120.70;;;11.07;;
29026;SDS011;16120;48.608;9.092;2024-03-08T01:38:42;120.77;;;10.70;;
29026;SDS011;16120;48.608;9.092;2024-03-08T01:42:39;120.93;;;11.10;;
29026;SDS011;16120;48.608;9.092;2024-03-08T01:46:34;120.20;;;10.70;;
29026;SDS011;16120;48.608;9.092;2024-03-08T01:50:29;120.77;;;10.63;;
29026;SDS011;16120;48.608;9.092;2024-03-08T01:54:25;121.27;;;11.13;;
29026;SDS011;16120;48.608;9.092;2024-03-08T01:58:22;121.13;;;10.77;;
29026;SDS011;16120;48.608;9.092;2024-03-08T02:02:18;121.27;;;10.97;;
29026;SDS011;16120;48.608;9.092;2024-03-08T02:06:13;121.20;;;11.13;;
29026;SDS011;16120;48.608;9.092;2024-03-08T02:10:09;121.13;;;10.95;;
29026;SDS011;16120;48.608;9.092;2024-03-08T02:14:05;121.80;;;11.50;;
29026;SDS011;16120;48.608;9.092;2024-03-08T02:18:00;121.67;;;11.70;;
29026;SDS011;16120;48.608;9.092;2024-03-08T02:21:57;121.80;;;12.10;;
29026;SDS011;16120;48.608;9.092;2024-03-08T02:25:52;121.00;;;10.80;;
29026;SDS011;16120;48.608;9.092;2024-03-08T02:29:48;121.77;;;11.23;;
29026;SDS011;16120;48.608;9.092;2024-03-08T02:33:43;121.93;;;11.27;;
29026;SDS011;16120;48.608;9.092;2024-03-08T02:37:40;121.70;;;11.13;;
29026;SDS011;16120;48.608;9.092;2024-03-08T02:41:35;121.97;;;11.47;;
29026;SDS011;16120;48.608;9.092;2024-03-08T02:45:30;121.77;;;11.10;;
29026;SDS011;16120;48.608;9.092;2024-03-08T02:49:25;122.88;;;11.65;;
29026;SDS011;16120;48.608;9.092;2024-03-08T02:53:22;122.13;;;11.20;;
29026;SDS011;16120;48.608;9.092;2024-03-08T02:57:17;122.73;;;12.40;;
29026;SDS011;16120;48.608;9.092;2024-03-08T03:01:12;122.23;;;11.77;;
29026;SDS011;16120;48.608;9.092;2024-03-08T03:05:07;122.00;;;11.73;;
29026;SDS011;16120;48.608;9.092;2024-03-08T03:09:04;122.00;;;11.60;;
29026;SDS011;16120;48.608;9.092;2024-03-08T03:12:59;123.80;;;11.90;;
29026;SDS011;16120;48.608;9.092;2024-03-08T03:16:54;121.87;;;11.03;;
29026;SDS011;16120;48.608;9.092;2024-03-08T03:20:50;122.70;;;11.53;;
29026;SDS011;16120;48.608;9.092;2024-03-08T03:24:47;122.37;;;11.97;;
29026;SDS011;16120;48.608;9.092;2024-03-08T03:28:42;122.77;;;12.00;;
29026;SDS011;16120;48.608;9.092;2024-03-08T03:32:37;122.17;;;11.70;;
29026;SDS011;16120;48.608;9.092;2024-03-08T03:36:32;122.07;;;11.33;;
29026;SDS011;16120;48.608;9.092;2024-03-08T03:40:29;122.03;;;11.37;;
29026;SDS011;16120;48.608;9.092;2024-03-08T03:44:24;122.77;;;11.50;;
29026;SDS011;16120;48.608;9.092;2024-03-08T03:48:19;122.90;;;12.50;;
29026;SDS011;16120;48.608;9.092;2024-03-08T03:52:14;122.90;;;11.50;;
29026;SDS011;16120;48.608;9.092;2024-03-08T03:56:11;121.77;;;11.60;;
29026;SDS011;16120;48.608;9.092;2024-03-08T04:00:06;123.40;;;12.20;;
29026;SDS011;16120;48.608;9.092;2024-03-08T04:04:02;122.93;;;12.50;;
29026;SDS011;16120;48.608;9.092;2024-03-08T04:07:57;122.37;;;11.20;;
29026;SDS011;16120;48.608;9.092;2024-03-08T04:11:54;122.47;;;11.20;;
29026;SDS011;16120;48.608;9.092;2024-03-08T04:15:49;122.27;;;12.13;;
29026;SDS011;16120;48.608;9.092;2024-03-08T04:19:44;122.47;;;11.80;;
29026;SDS011;16120;48.608;9.092;2024-03-08T04:23:39;122.57;;;11.60;;
29026;SDS011;16120;48.608;9.092;2024-03-08T04:27:36;122.47;;;11.60;;
29026;SDS011;16120;48.608;9.092;2024-03-08T04:31:31;125.30;;;12.20;;
29026;SDS011;16120;48.608;9.092;2024-03-08T04:35:26;122.77;;;11.67;;
29026;SDS011;16120;48.608;9.092;2024-03-08T04:39:22;122.80;;;12.07;;
29026;SDS011;16120;48.608;9.092;2024-03-08T04:43:18;123.20;;;12.10;;
29026;SDS011;16120;48.608;9.092;2024-03-08T04:47:13;122.77;;;11.17;;
29026;SDS011;16120;48.608;9.092;2024-03-08T04:51:09;124.07;;;12.53;;
29026;SDS011;16120;48.608;9.092;2024-03-08T04:55:05;123.50;;;12.33;;
29026;SDS011;16120;48.608;9.092;2024-03-08T04:59:01;123.60;;;12.00;;
29026;SDS011;16120;48.608;9.092;2024-03-08T05:02:56;123.07;;;12.20;;
29026;SDS011;16120;48.608;9.092;2024-03-08T05:06:52;123.55;;;12.18;;
29026;SDS011;16120;48.608;9.092;2024-03-08T05:10:47;123.40;;;12.37;;
29026;SDS011;16120;48.608;9.092;2024-03-08T05:14:43;122.77;;;11.63;;
29026;SDS011;16120;48.608;9.092;2024-03-08T05:18:39;123.40;;;12.70;;
29026;SDS011;16120;48.608;9.092;2024-03-08T05:22:34;123.27;;;11.80;;
29026;SDS011;16120;48.608;9.092;2024-03-08T05:26:29;123.70;;;12.13;;
29026;SDS011;16120;48.608;9.092;2024-03-08T05:30:26;124.40;;;12.50;;
29026;SDS011;16120;48.608;9.092;2024-03-08T05:34:21;123.77;;;12.60;;
29026;SDS011;16120;48.608;9.092;2024-03-08T05:38:16;123.33;;;12.03;;
29026;SDS011;16120;48.608;9.092;2024-03-08T05:42:11;123.90;;;12.40;;
29026;SDS011;16120;48.608;9.092;2024-03-08T05:46:08;123.57;;;12.00;;
29026;SDS011;16120;48.608;9.092;2024-03-08T05:50:04;124.23;;;12.30;;
29026;SDS011;16120;48.608;9.092;2024-03-08T05:53:59;123.00;;;12.50;;
29026;SDS011;16120;48.608;9.092;2024-03-08T05:57:54;123.82;;;12.57;;
29026;SDS011;16120;48.608;9.092;2024-03-08T06:01:51;123.37;;;12.20;;
29026;SDS011;16120;48.608;9.092;2024-03-08T06:05:46;123.17;;;10.97;;
29026;SDS011;16120;48.608;9.092;2024-03-08T06:09:41;124.27;;;11.70;;
29026;SDS011;16120;48.608;9.092;2024-03-08T06:13:36;123.57;;;11.30;;
29026;SDS011;16120;48.608;9.092;2024-03-08T06:17:33;123.33;;;11.77;;
29026;SDS011;16120;48.608;9.092;2024-03-08T06:21:29;122.87;;;11.40;;
29026;SDS011;16120;48.608;9.092;2024-03-08T06:25:24;124.03;;;13.17;;
29026;SDS011;16120;48.608;9.092;2024-03-08T06:29:19;122.37;;;11.33;;
29026;SDS011;16120;48.608;9.092;2024-03-08T06:33:16;125.27;;;11.90;;
29026;SDS011;16120;48.608;9.092;2024-03-08T06:37:11;122.47;;;12.03;;
29026;SDS011;16120;48.608;9.092;2024-03-08T06:41:06;123.60;;;12.63;;
29026;SDS011;16120;48.608;9.092;2024-03-08T06:45:02;123.60;;;13.00;;
29026;SDS011;16120;48.608;9.092;2024-03-08T06:48:58;122.77;;;11.10;;
29026;SDS011;16120;48.608;9.092;2024-03-08T06:52:53;122.27;;;11.17;;
29026;SDS011;16120;48.608;9.092;2024-03-08T06:56:49;123.30;;;11.43;;
29026;SDS011;16120;48.608;9.092;2024-03-08T07:00:44;122.90;;;11.60;;
29026;SDS011;16120;48.608;9.092;2024-03-08T07:04:40;121.87;;;11.70;;
29026;SDS011;16120;48.608;9.092;2024-03-08T07:08:36;122.60;;;11.60;;
29026;SDS011;16120;48.608;9.092;2024-03-08T07:12:31;122.30;;;11.70;;
29026;SDS011;16120;48.608;9.092;2024-03-08T07:16:26;122.30;;;11.70;;
29026;SDS011;16120;48.608;9.092;2024-03-08T07:20:22;122.83;;;12.97;;
29026;SDS011;16120;48.608;9.092;2024-03-08T07:24:18;122.60;;;12.30;;
29026;SDS011;16120;48.608;9.092;2024-03-08T07:28:13;122.03;;;11.90;;
29026;SDS011;16120;48.608;9.092;2024-03-08T07:32:08;122.27;;;12.10;;
29026;SDS011;16120;48.608;9.092;2024-03-08T07:36:05;122.27;;;12.23;;
29026;SDS011;16120;48.608;9.092;2024-03-08T07:40:00;121.57;;;11.40;;
29026;SDS011;16120;48.608;9.092;2024-03-08T07:43:55;121.60;;;11.37;;
29026;SDS011;16120;48.608;9.092;2024-03-08T07:47:50;121.70;;;11.20;;
29026;SDS011;16120;48.608;9.092;2024-03-08T07:51:47;121.27;;;10.77;;
29026;SDS011;16120;48.608;9.092;2024-03-08T07:55:42;121.87;;;11.93;;
29026;SDS011;16120;48.608;9.092;2024-03-08T07:59:37;120.80;;;11.10;;
29026;SDS011;16120;48.608;9.092;2024-03-08T08:03:32;120.73;;;11.30;;
29026;SDS011;16120;48.608;9.092;2024-03-08T08:07:29;120.27;;;10.83;;
29026;SDS011;16120;48.608;9.092;2024-03-08T08:11:25;120.17;;;10.63;;
29026;SDS011;16120;48.608;9.092;2024-03-08T08:15:21;119.80;;;10.63;;
29026;SDS011;16120;48.608;9.092;2024-03-08T08:19:16;120.03;;;10.70;;
29026;SDS011;16120;48.608;9.092;2024-03-08T08:23:12;118.90;;;10.40;;
29026;SDS011;16120;48.608;9.092;2024-03-08T08:27:07;119.00;;;10.40;;
29026;SDS011;16120;48.608;9.092;2024-03-08T08:31:03;119.23;;;10.37;;
29026;SDS011;16120;48.608;9.092;2024-03-08T08:34:58;118.90;;;10.63;;
29026;SDS011;16120;48.608;9.092;2024-03-08T08:38:55;118.47;;;10.43;;
29026;SDS011;16120;48.608;9.092;2024-03-08T08:42:50;118.30;;;9.90;;
29026;SDS011;16120;48.608;9.092;2024-03-08T08:46:45;117.67;;;10.27;;
29026;SDS011;16120;48.608;9.092;2024-03-08T08:50:40;118.00;;;9.97;;
29026;SDS011;16120;48.608;9.092;2024-03-08T08:54:37;118.10;;;10.33;;
29026;SDS011;16120;48.608;9.092;2024-03-08T08:58:32;118.03;;;10.80;;
29026;SDS011;16120;48.608;9.092;2024-03-08T09:02:27;117.60;;;9.87;;
29026;SDS011;16120;48.608;9.092;2024-03-08T09:06:22;117.50;;;9.87;;
29026;SDS011;16120;48.608;9.092;2024-03-08T09:10:19;117.60;;;10.30;;
29026;SDS011;16120;48.608;9.092;2024-03-08T09:14:14;117.10;;;9.80;;
29026;SDS011;16120;48.608;9.092;2024-03-08T09:18:09;117.70;;;10.10;;
29026;SDS011;16120;48.608;9.092;2024-03-08T09:22:04;118.07;;;10.93;;
29026;SDS011;16120;48.608;9.092;2024-03-08T09:26:01;117.63;;;10.02;;
29026;SDS011;16120;48.608;9.092;2024-03-08T09:29:56;116.27;;;9.50;;
29026;SDS011;16120;48.608;9.092;2024-03-08T09:33:51;117.47;;;10.03;;
29026;SDS011;16120;48.608;9.092;2024-03-08T09:37:46;117.15;;;11.10;;
29026;SDS011;16120;48.608;9.092;2024-03-08T09:41:43;117.50;;;11.13;;
29026;SDS011;16120;48.608;9.092;2024-03-08T09:45:38;117.50;;;10.57;;
29026;SDS011;16120;48.608;9.092;2024-03-08T09:49:35;117.07;;;10.23;;
29026;SDS011;16120;48.608;9.092;2024-03-08T09:53:30;117.00;;;9.80;;
29026;SDS011;16120;48.608;9.092;2024-03-08T09:57:26;116.47;;;10.13;;
29026;SDS011;16120;48.608;9.092;2024-03-08T10:01:22;117.47;;;10.20;;
29026;SDS011;16120;48.608;9.092;2024-03-08T10:05:17;116.47;;;9.73;;
29026;SDS011;16120;48.608;9.092;2024-03-08T10:09:12;115.77;;;9.70;;
29026;SDS011;16120;48.608;9.092;2024-03-08T10:13:09;116.23;;;10.00;;
29026;SDS011;16120;48.608;9.092;2024-03-08T10:17:05;115.83;;;9.80;;
29026;SDS011;16120;48.608;9.092;2024-03-08T10:21:03;114.77;;;9.53;;
29026;SDS011;16120;48.608;9.092;2024-03-08T10:24:59;114.97;;;9.17;;
29026;SDS011;16120;48.608;9.092;2024-03-08T10:28:56;115.27;;;9.47;;
29026;SDS011;16120;48.608;9.092;2024-03-08T10:32:51;116.07;;;10.30;;
29026;SDS011;16120;48.608;9.092;2024-03-08T10:36:47;116.32;;;10.48;;
29026;SDS011;16120;48.608;9.092;2024-03-08T10:40:43;116.23;;;9.87;;
29026;SDS011;16120;48.608;9.092;2024-03-08T10:44:48;114.63;;;9.57;;
29026;SDS011;16120;48.608;9.092;2024-03-08T10:48:44;114.90;;;9.37;;
29026;SDS011;16120;48.608;9.092;2024-03-08T10:52:40;114.73;;;9.47;;
29026;SDS011;16120;48.608;9.092;2024-03-08T10:56:35;114.00;;;9.60;;
29026;SDS011;16120;48.608;9.092;2024-03-08T11:00:31;113.68;;;9.60;;
29026;SDS011;16120;48.608;9.092;2024-03-08T11:04:27;113.57;;;9.73;;
29026;SDS011;16120;48.608;9.092;2024-03-08T11:08:22;113.97;;;9.50;;
29026;SDS011;16120;48.608;9.092;2024-03-08T11:12:21;126.63;;;22.23;;
29026;SDS011;16120;48.608;9.092;2024-03-08T11:16:37;113.40;;;9.60;;
29026;SDS011;16120;48.608;9.092;2024-03-08T11:20:32;112.90;;;9.37;;
29026;SDS011;16120;48.608;9.092;2024-03-08T11:24:27;112.80;;;9.27;;
29026;SDS011;16120;48.608;9.092;2024-03-08T11:28:23;112.97;;;8.80;;
29026;SDS011;16120;48.608;9.092;2024-03-08T11:32:19;112.10;;;9.17;;
29026;SDS011;16120;48.608;9.092;2024-03-08T11:36:19;112.50;;;9.50;;
29026;SDS011;16120;48.608;9.092;2024-03-08T11:40:15;112.40;;;9.73;;
29026;SDS011;16120;48.608;9.092;2024-03-08T11:44:10;111.53;;;9.00;;
29026;SDS011;16120;48.608;9.092;2024-03-08T11:48:07;112.00;;;9.03;;
29026;SDS011;16120;48.608;9.092;2024-03-08T11:52:02;112.17;;;9.37;;
29026;SDS011;16120;48.608;9.092;2024-03-08T11:56:05;111.93;;;8.50;;
29026;SDS011;16120;48.608;9.092;2024-03-08T12:00:00;111.40;;;9.20;;
29026;SDS011;16120;48.608;9.092;2024-03-08T12:03:57;112.80;;;12.53;;
29026;SDS011;16120;48.608;9.092;2024-03-08T12:07:55;114.07;;;15.53;;
29026;SDS011;16120;48.608;9.092;2024-03-08T12:11:50;111.20;;;9.97;;
29026;SDS011;16120;48.608;9.092;2024-03-08T12:15:46;113.07;;;12.77;;
29026;SDS011;16120;48.608;9.092;2024-03-08T12:19:47;110.97;;;9.10;;
29026;SDS011;16120;48.608;9.092;2024-03-08T12:23:42;110.67;;;9.07;;
29026;SDS011;16120;48.608;9.092;2024-03-08T12:27:37;111.73;;;10.70;;
29026;SDS011;16120;48.608;9.092;2024-03-08T12:31:32;110.77;;;9.13;;
29026;SDS011;16120;48.608;9.092;2024-03-08T12:35:29;110.50;;;9.80;;
29026;SDS011;16120;48.608;9.092;2024-03-08T12:39:25;109.87;;;8.87;;
29026;SDS011;16120;48.608;9.092;2024-03-08T12:43:20;111.47;;;8.67;;
29026;SDS011;16120;48.608;9.092;2024-03-08T12:47:15;110.50;;;8.93;;
29026;SDS011;16120;48.608;9.092;2024-03-08T12:51:12;111.70;;;11.20;;
29026;SDS011;16120;48.608;9.092;2024-03-08T12:55:07;110.40;;;9.43;;
29026;SDS011;16120;48.608;9.092;2024-03-08T12:59:03;109.77;;;8.70;;
29026;SDS011;16120;48.608;9.092;2024-03-08T13:02:58;109.97;;;8.57;;
29026;SDS011;16120;48.608;9.092;2024-03-08T13:06:55;109.70;;;9.90;;
29026;SDS011;16120;48.608;9.092;2024-03-08T13:10:50;109.57;;;8.80;;
29026;SDS011;16120;48.608;9.092;2024-03-08T13:14:45;109.17;;;8.73;;
29026;SDS011;16120;48.608;9.092;2024-03-08T13:18:41;109.70;;;10.50;;
29026;SDS011;16120;48.608;9.092;2024-03-08T13:22:37;108.07;;;8.37;;
29026;SDS011;16120;48.608;9.092;2024-03-08T13:26:33;108.67;;;8.73;;
29026;SDS011;16120;48.608;9.092;2024-03-08T13:30:28;108.67;;;9.50;;
29026;SDS011;16120;48.608;9.092;2024-03-08T13:34:23;108.37;;;8.60;;
29026;SDS011;16120;48.608;9.092;2024-03-08T13:38:19;108.07;;;8.37;;
29026;SDS011;16120;48.608;9.092;2024-03-08T13:42:15;109.07;;;9.33;;
29026;SDS011;16120;48.608;9.092;2024-03-08T13:46:10;108.37;;;8.30;;
29026;SDS011;16120;48.608;9.092;2024-03-08T13:50:06;108.37;;;9.00;;
29026;SDS011;16120;48.608;9.092;2024-03-08T13:54:03;108.30;;;9.13;;
29026;SDS011;16120;48.608;9.092;2024-03-08T13:57:58;108.77;;;9.13;;
29026;SDS011;16120;48.608;9.092;2024-03-08T14:01:53;109.17;;;10.30;;
29026;SDS011;16120;48.608;9.092;2024-03-08T14:05:48;108.60;;;9.00;;
29026;SDS011;16120;48.608;9.092;2024-03-08T14:09:45;108.70;;;9.47;;
29026;SDS011;16120;48.608;9.092;2024-03-08T14:13:40;109.00;;;9.80;;
29026;SDS011;16120;48.608;9.092;2024-03-08T14:17:35;108.77;;;9.70;;
29026;SDS011;16120;48.608;9.092;2024-03-08T14:21:31;108.47;;;9.20;;
29026;SDS011;16120;48.608;9.092;2024-03-08T14:25:27;108.75;;;9.65;;
29026;SDS011;16120;48.608;9.092;2024-03-08T14:29:22;108.13;;;8.80;;
29026;SDS011;16120;48.608;9.092;2024-03-08T14:33:18;107.77;;;8.77;;
29026;SDS011;16120;48.608;9.092;2024-03-08T14:37:13;109.53;;;11.60;;
29026;SDS011;16120;48.608;9.092;2024-03-08T14:41:09;109.25;;;12.07;;
29026;SDS011;16120;48.608;9.092;2024-03-08T14:45:05;107.83;;;9.00;;
29026;SDS011;16120;48.608;9.092;2024-03-08T14:49:00;107.77;;;8.90;;
29026;SDS011;16120;48.608;9.092;2024-03-08T14:52:55;108.37;;;9.03;;
29026;SDS011;16120;48.608;9.092;2024-03-08T14:56:52;108.37;;;9.17;;
29026;SDS011;16120;48.608;9.092;2024-03-08T15:00:47;111.20;;;14.60;;
29026;SDS011;16120;48.608;9.092;2024-03-08T15:04:42;107.50;;;8.60;;
29026;SDS011;16120;48.608;9.092;2024-03-08T15:08:38;108.77;;;10.50;;
29026;SDS011;16120;48.608;9.092;2024-03-08T15:12:34;109.70;;;12.23;;
29026;SDS011;16120;48.608;9.092;2024-03-08T15:16:30;108.07;;;9.73;;
29026;SDS011;16120;48.608;9.092;2024-03-08T15:20:25;107.63;;;9.23;;
29026;SDS011;16120;48.608;9.092;2024-03-08T15:24:20;107.87;;;8.90;;
29026;SDS011;16120;48.608;9.092;2024-03-08T15:28:16;110.73;;;15.40;;
29026;SDS011;16120;48.608;9.092;2024-03-08T15:32:12;108.40;;;9.00;;
29026;SDS011;16120;48.608;9.092;2024-03-08T15:36:07;107.00;;;8.40;;
29026;SDS011;16120;48.608;9.092;2024-03-08T15:40:02;107.63;;;9.48;;
29026;SDS011;16120;48.608;9.092;2024-03-08T15:43:59;120.80;;;27.37;;
29026;SDS011;16120;48.608;9.092;2024-03-08T15:47:54;107.57;;;8.77;;
29026;SDS011;16120;48.608;9.092;2024-03-08T15:51:50;107.57;;;8.80;;
29026;SDS011;16120;48.608;9.092;2024-03-08T15:55:45;108.07;;;9.23;;
29026;SDS011;16120;48.608;9.092;2024-03-08T15:59:41;107.47;;;9.20;;
29026;SDS011;16120;48.608;9.092;2024-03-08T16:03:37;107.97;;;9.30;;
29026;SDS011;16120;48.608;9.092;2024-03-08T16:07:32;107.97;;;9.80;;
29026;SDS011;16120;48.608;9.092;2024-03-08T16:11:27;109.00;;;11.30;;
29026;SDS011;16120;48.608;9.092;2024-03-08T16:15:23;108.67;;;10.37;;
29026;SDS011;16120;48.608;9.092;2024-03-08T16:19:19;108.17;;;8.90;;
29026;SDS011;16120;48.608;9.092;2024-03-08T16:23:14;108.00;;;8.60;;
29026;SDS011;16120;48.608;9.092;2024-03-08T16:27:09;109.83;;;12.10;;
29026;SDS011;16120;48.608;9.092;2024-03-08T16:31:06;109.13;;;9.40;;
29026;SDS011;16120;48.608;9.092;2024-03-08T16:35:01;109.20;;;8.90;;
29026;SDS011;16120;48.608;9.092;2024-03-08T16:38:56;109.30;;;9.07;;
29026;SDS011;16120;48.608;9.092;2024-03-08T16:42:51;109.27;;;9.43;;
29026;SDS011;16120;48.608;9.092;2024-03-08T16:46:48;108.83;;;8.97;;
29026;SDS011;16120;48.608;9.092;2024-03-08T16:50:43;109.50;;;9.20;;
29026;SDS011;16120;48.608;9.092;2024-03-08T16:54:38;109.43;;;9.13;;
29026;SDS011;16120;48.608;9.092;2024-03-08T16:58:33;109.77;;;8.77;;
29026;SDS011;16120;48.608;9.092;2024-03-08T17:02:30;110.90;;;9.07;;
29026;SDS011;16120;48.608;9.092;2024-03-08T17:06:25;109.63;;;9.07;;
29026;SDS011;16120;48.608;9.092;2024-03-08T17:10:21;110.10;;;9.53;;
29026;SDS011;16120;48.608;9.092;2024-03-08T17:14:16;109.63;;;8.87;;
29026;SDS011;16120;48.608;9.092;2024-03-08T17:18:12;109.27;;;8.47;;
29026;SDS011;16120;48.608;9.092;2024-03-08T17:22:08;109.60;;;8.90;;
29026;SDS011;16120;48.608;9.092;2024-03-08T17:26:03;109.47;;;9.20;;
29026;SDS011;16120;48.608;9.092;2024-03-08T17:29:58;109.67;;;8.63;;
29026;SDS011;16120;48.608;9.092;2024-03-08T17:33:55;109.97;;;8.30;;
29026;SDS011;16120;48.608;9.092;2024-03-08T17:37:51;109.47;;;8.13;;
29026;SDS011;16120;48.608;9.092;2024-03-08T17:41:46;110.03;;;8.07;;
29026;SDS011;16120;48.608;9.092;2024-03-08T17:45:42;110.47;;;8.43;;
29026;SDS011;16120;48.608;9.092;2024-03-08T17:49:38;110.70;;;8.70;;
29026;SDS011;16120;48.608;9.092;2024-03-08T17:53:33;110.47;;;8.10;;
29026;SDS011;16120;48.608;9.092;2024-03-08T17:57:28;111.37;;;9.40;;
29026;SDS011;16120;48.608;9.092;2024-03-08T18:01:24;111.67;;;8.87;;
29026;SDS011;16120;48.608;9.092;2024-03-08T18:05:21;111.20;;;8.37;;
29026;SDS011;16120;48.608;9.092;2024-03-08T18:09:16;111.73;;;8.70;;
29026;SDS011;16120;48.608;9.092;2024-03-08T18:13:11;112.00;;;8.53;;
29026;SDS011;16120;48.608;9.092;2024-03-08T18:17:06;111.80;;;8.30;;
29026;SDS011;16120;48.608;9.092;2024-03-08T18:21:03;112.37;;;8.70;;
29026;SDS011;16120;48.608;9.092;2024-03-08T18:24:58;112.30;;;8.83;;
29026;SDS011;16120;48.608;9.092;2024-03-08T18:28:53;112.57;;;8.80;;
29026;SDS011;16120;48.608;9.092;2024-03-08T18:32:49;112.90;;;8.87;;
29026;SDS011;16120;48.608;9.092;2024-03-08T18:36:45;113.27;;;9.03;;
29026;SDS011;16120;48.608;9.092;2024-03-08T18:40:40;113.30;;;9.47;;
29026;SDS011;16120;48.608;9.092;2024-03-08T18:44:36;113.77;;;9.60;;
29026;SDS011;16120;48.608;9.092;2024-03-08T18:48:31;113.60;;;9.43;;
29026;SDS011;16120;48.608;9.092;2024-03-08T18:52:27;113.57;;;9.00;;
29026;SDS011;16120;48.608;9.092;2024-03-08T18:56:22;113.20;;;9.10;;
29026;SDS011;16120;48.608;9.092;2024-03-08T19:00:18;114.07;;;9.47;;
29026;SDS011;16120;48.608;9.092;2024-03-08T19:04:14;114.03;;;9.20;;
29026;SDS011;16120;48.608;9.092;2024-03-08T19:08:10;113.60;;;9.67;;
29026;SDS011;16120;48.608;9.092;2024-03-08T19:12:06;113.50;;;10.00;;
29026;SDS011;16120;48.608;9.092;2024-03-08T19:16:01;114.07;;;9.70;;
29026;SDS011;16120;48.608;9.092;2024-03-08T19:19:56;114.23;;;10.00;;
29026;SDS011;16120;48.608;9.092;2024-03-08T19:23:53;114.07;;;9.33;;
29026;SDS011;16120;48.608;9.092;2024-03-08T19:27:48;114.50;;;9.13;;
29026;SDS011;16120;48.608;9.092;2024-03-08T19:31:43;115.10;;;9.57;;
29026;SDS011;16120;48.608;9.092;2024-03-08T19:35:38;115.07;;;9.83;;
29026;SDS011;16120;48.608;9.092;2024-03-08T19:39:35;115.10;;;9.20;;
29026;SDS011;16120;48.608;9.092;2024-03-08T19:43:30;115.90;;;9.80;;
29026;SDS011;16120;48.608;9.092;2024-03-08T19:47:25;115.90;;;8.90;;
29026;SDS011;16120;48.608;9.092;2024-03-08T19:51:20;115.60;;;9.10;;
29026;SDS011;16120;48.608;9.092;2024-03-08T19:55:17;116.17;;;9.10;;
29026;SDS011;16120;48.608;9.092;2024-03-08T19:59:12;116.60;;;9.67;;
29026;SDS011;16120;48.608;9.092;2024-03-08T20:03:08;116.50;;;10.03;;
29026;SDS011;16120;48.608;9.092;2024-03-08T20:07:03;116.47;;;10.07;;
29026;SDS011;16120;48.608;9.092;2024-03-08T20:10:59;116.57;;;9.40;;
29026;SDS011;16120;48.608;9.092;2024-03-08T20:14:55;116.90;;;9.60;;
29026;SDS011;16120;48.608;9.092;2024-03-08T20:18:50;117.47;;;9.70;;
29026;SDS011;16120;48.608;9.092;2024-03-08T20:22:45;117.30;;;10.03;;
29026;SDS011;16120;48.608;9.092;2024-03-08T20:26:42;116.90;;;9.50;;
29026;SDS011;16120;48.608;9.092;2024-03-08T20:30:37;117.07;;;9.67;;
29026;SDS011;16120;48.608;9.092;2024-03-08T20:34:33;116.90;;;9.70;;
29026;SDS011;16120;48.608;9.092;2024-03-08T20:38:28;117.20;;;9.70;;
29026;SDS011;16120;48.608;9.092;2024-03-08T20:42:24;116.90;;;9.73;;
29026;SDS011;16120;48.608;9.092;2024-03-08T20:46:20;117.07;;;9.70;;
29026;SDS011;16120;48.608;9.092;2024-03-08T20:50:15;117.90;;;10.10;;
29026;SDS011;16120;48.608;9.092;2024-03-08T20:54:10;117.67;;;9.73;;
29026;SDS011;16120;48.608;9.092;2024-03-08T20:58:06;118.07;;;10.07;;
29026;SDS011;16120;48.608;9.092;2024-03-08T21:02:02;117.37;;;9.63;;
29026;SDS011;16120;48.608;9.092;2024-03-08T21:05:57;117.25;;;9.75;;
29026;SDS011;16120;48.608;9.092;2024-03-08T21:09:52;118.23;;;9.90;;
29026;SDS011;16120;48.608;9.092;2024-03-08T21:13:49;117.17;;;9.50;;
29026;SDS011;16120;48.608;9.092;2024-03-08T21:17:44;117.70;;;9.70;;
29026;SDS011;16120;48.608;9.092;2024-03-08T21:21:39;117.67;;;9.83;;
29026;SDS011;16120;48.608;9.092;2024-03-08T21:25:34;117.67;;;9.87;;
29026;SDS011;16120;48.608;9.092;2024-03-08T21:29:31;117.20;;;9.43;;
29026;SDS011;16120;48.608;9.092;2024-03-08T21:33:26;117.20;;;9.40;;
29026;SDS011;16120;48.608;9.092;2024-03-08T21:37:21;118.37;;;9.50;;
29026;SDS011;16120;48.608;9.092;2024-03-08T21:41:16;117.90;;;9.60;;
29026;SDS011;16120;48.608;9.092;2024-03-08T21:45:13;117.17;;;9.57;;
29026;SDS011;16120;48.608;9.092;2024-03-08T21:49:08;117.27;;;10.10;;
29026;SDS011;16120;48.608;9.092;2024-03-08T21:53:03;118.10;;;9.63;;
29026;SDS011;16120;48.608;9.092;2024-03-08T21:56:59;117.77;;;9.57;;
29026;SDS011;16120;48.608;9.092;2024-03-08T22:00:55;117.77;;;9.40;;
29026;SDS011;16120;48.608;9.092;2024-03-08T22:04:51;118.30;;;9.80;;
29026;SDS011;16120;48.608;9.092;2024-03-08T22:08:46;117.47;;;9.33;;
29026;SDS011;16120;48.608;9.092;2024-03-08T22:12:41;118.20;;;9.40;;
29026;SDS011;16120;48.608;9.092;2024-03-08T22:16:38;118.30;;;9.80;;
29026;SDS011;16120;48.608;9.092;2024-03-08T22:20:33;117.87;;;9.47;;
29026;SDS011;16120;48.608;9.092;2024-03-08T22:24:28;117.47;;;9.67;;
29026;SDS011;16120;48.608;9.092;2024-03-08T22:28:23;117.97;;;9.27;;
29026;SDS011;16120;48.608;9.092;2024-03-08T22:32:20;118.20;;;9.73;;
29026;SDS011;16120;48.608;9.092;2024-03-08T22:36:15;118.50;;;10.00;;
29026;SDS011;16120;48.608;9.092;2024-03-08T22:40:10;118.47;;;9.70;;
29026;SDS011;16120;48.608;9.092;2024-03-08T22:44:06;119.10;;;10.30;;
29026;SDS011;16120;48.608;9.092;2024-03-08T22:48:02;119.07;;;10.23;;